createdAt,value
2022-10-05T00:01:53.020Z,12.20
2022-10-05T00:04:24.400Z,13.45
2022-10-05T00:06:56.046Z,15.77
2022-10-05T00:09:22.880Z,11.75
2022-10-05T00:11:50.910Z,11.57
2022-10-05T00:14:21.834Z,11.18
2022-10-05T00:16:49.238Z,12.90
2022-10-05T00:19:37.412Z,11.50
2022-10-05T00:22:20.556Z,11.90
2022-10-05T00:24:50.293Z,12.75
2022-10-05T00:27:37.456Z,11.35
2022-10-05T00:30:19.080Z,12.98
2022-10-05T00:32:46.079Z,13.23
2022-10-05T00:35:14.538Z,12.38
2022-10-05T00:37:41.943Z,13.30
2022-10-05T00:40:32.689Z,11.25
2022-10-05T00:43:02.383Z,11.50
2022-10-05T00:45:39.573Z,13.73
2022-10-05T00:48:25.121Z,12.20
2022-10-05T00:53:57.659Z,14.48
2022-10-05T00:56:33.419Z,9.95
2022-10-05T00:59:24.635Z,12.50
2022-10-05T01:02:06.203Z,10.52
2022-10-05T01:04:57.600Z,12.88
2022-10-05T01:07:56.068Z,15.98
2022-10-05T01:10:53.569Z,11.13
2022-10-05T01:13:45.501Z,11.98
2022-10-05T01:16:47.372Z,14.55
2022-10-05T01:19:29.248Z,13.15
2022-10-05T01:22:28.604Z,12.05
2022-10-05T01:25:36.637Z,12.68
2022-10-05T01:28:13.206Z,10.75
2022-10-05T01:31:05.871Z,10.95
2022-10-05T01:34:11.555Z,11.27
2022-10-05T01:36:59.088Z,12.30
2022-10-05T01:40:17.004Z,13.82
2022-10-05T01:43:22.440Z,11.90
2022-10-05T01:46:06.451Z,12.63
2022-10-05T01:49:17.310Z,13.85
2022-10-05T01:54:39.717Z,11.48
2022-10-05T01:57:37.785Z,13.30
2022-10-05T02:00:09.027Z,12.10
2022-10-05T02:02:47.397Z,13.80
2022-10-05T02:05:18.127Z,13.27
2022-10-05T02:08:09.485Z,13.88
2022-10-05T02:10:42.130Z,13.63
2022-10-05T02:13:22.763Z,14.25
2022-10-05T02:16:01.562Z,15.45
2022-10-05T02:18:33.616Z,12.80
2022-10-05T02:21:05.236Z,13.70
2022-10-05T02:23:35.832Z,12.02
2022-10-05T02:26:03.476Z,12.80
2022-10-05T02:28:50.109Z,15.10
2022-10-05T02:31:24.874Z,15.02
2022-10-05T02:33:51.631Z,13.68
2022-10-05T02:36:36.283Z,14.43
2022-10-05T02:39:35.104Z,15.93
2022-10-05T02:42:32.524Z,13.55
2022-10-05T02:45:10.785Z,13.80
2022-10-05T02:47:53.683Z,13.55
2022-10-05T02:50:51.090Z,12.35
2022-10-05T02:53:26.602Z,13.88
2022-10-05T02:56:27.194Z,11.75
2022-10-05T02:59:21.810Z,12.95
2022-10-05T03:02:10.128Z,12.32
2022-10-05T03:04:55.296Z,13.13
2022-10-05T03:10:22.046Z,15.70
2022-10-05T03:13:05.172Z,14.35
2022-10-05T03:15:56.322Z,12.57
2022-10-05T03:18:37.645Z,11.60
2022-10-05T03:21:42.367Z,14.25
2022-10-05T03:24:43.620Z,14.82
2022-10-05T03:27:42.142Z,12.82
2022-10-05T03:30:21.714Z,13.88
2022-10-05T03:33:11.847Z,12.63
2022-10-05T03:36:05.382Z,11.98
2022-10-05T03:38:48.575Z,14.07
2022-10-05T03:41:45.977Z,14.20
2022-10-05T03:44:34.139Z,13.05
2022-10-05T03:47:25.680Z,13.82
2022-10-05T03:50:20.014Z,12.88
2022-10-05T03:52:54.619Z,11.95
2022-10-05T03:55:38.963Z,12.18
2022-10-05T03:58:26.073Z,13.80
2022-10-05T04:01:08.505Z,10.18
2022-10-05T04:03:49.890Z,12.25
2022-10-05T04:06:33.643Z,13.85
2022-10-05T04:09:13.004Z,10.43
2022-10-05T04:11:45.756Z,9.63
2022-10-05T04:14:37.075Z,10.65
2022-10-05T04:17:11.888Z,11.52
2022-10-05T04:19:58.854Z,11.68
2022-10-05T04:22:31.734Z,11.63
2022-10-05T04:25:22.724Z,11.82
2022-10-05T04:28:32.166Z,13.15
2022-10-05T04:31:02.590Z,13.13
2022-10-05T04:33:32.007Z,11.23
2022-10-05T04:36:18.609Z,11.60
2022-10-05T04:39:02.519Z,12.38
2022-10-05T04:41:34.271Z,11.30
2022-10-05T04:44:30.903Z,10.70
2022-10-05T04:47:22.236Z,11.80
2022-10-05T04:50:04.068Z,9.85
2022-10-05T04:52:53.084Z,12.13
2022-10-05T04:55:44.699Z,10.43
2022-10-05T04:58:45.313Z,11.88
2022-10-05T05:01:30.935Z,10.90
2022-10-05T05:04:06.269Z,10.48
2022-10-05T05:06:51.275Z,8.55
2022-10-05T05:09:38.920Z,11.65
2022-10-05T05:12:08.602Z,10.70
2022-10-05T05:15:16.087Z,9.15
2022-10-05T05:18:07.768Z,10.95
2022-10-05T05:20:59.264Z,9.43
2022-10-05T05:23:49.101Z,8.50
2022-10-05T05:26:46.166Z,8.30
2022-10-05T05:29:27.032Z,6.10
2022-10-05T05:32:12.588Z,5.78
2022-10-05T05:35:05.028Z,6.13
2022-10-05T05:37:38.679Z,6.35
2022-10-05T05:40:18.132Z,5.90
2022-10-05T05:42:59.062Z,6.50
2022-10-05T05:45:51.586Z,6.22
2022-10-05T05:48:26.114Z,6.43
2022-10-05T05:51:03.620Z,5.85
2022-10-05T05:53:40.103Z,6.88
2022-10-05T05:56:16.604Z,5.88
2022-10-05T05:59:15.567Z,6.80
2022-10-05T06:01:51.082Z,6.43
2022-10-05T06:04:35.126Z,7.07
2022-10-05T06:07:03.466Z,6.68
2022-10-05T06:09:49.724Z,8.45
2022-10-05T06:12:29.935Z,8.80
2022-10-05T06:15:47.932Z,7.93
2022-10-05T06:18:19.380Z,7.28
2022-10-05T06:20:50.614Z,8.73
2022-10-05T06:23:23.826Z,7.93
2022-10-05T06:26:21.573Z,6.75
2022-10-05T06:28:56.500Z,9.75
2022-10-05T06:31:54.201Z,8.18
2022-10-05T06:34:52.887Z,9.82
2022-10-05T06:37:48.043Z,7.47
2022-10-05T06:40:41.737Z,7.43
2022-10-05T06:43:31.349Z,6.68
2022-10-05T06:46:22.729Z,9.02
2022-10-05T06:49:27.958Z,8.52
2022-10-05T06:52:34.470Z,9.55
2022-10-05T06:55:23.843Z,9.63
2022-10-05T06:58:38.835Z,8.07
2022-10-05T07:01:18.195Z,9.48
2022-10-05T07:04:02.743Z,9.38
2022-10-05T07:06:35.936Z,8.15
2022-10-05T07:09:15.667Z,8.60
2022-10-05T07:12:20.610Z,7.47
2022-10-05T07:15:13.612Z,10.48
2022-10-05T07:17:56.282Z,8.70
2022-10-05T07:20:32.272Z,8.40
2022-10-05T07:23:33.628Z,8.70
2022-10-05T07:26:22.093Z,8.70
2022-10-05T07:29:12.682Z,8.32
2022-10-05T07:32:10.787Z,8.77
2022-10-05T07:34:55.258Z,8.57
2022-10-05T07:37:57.590Z,7.95
2022-10-05T07:40:37.872Z,7.30
2022-10-05T07:44:00.405Z,9.55
2022-10-05T07:46:43.606Z,9.18
2022-10-05T07:49:36.119Z,7.63
2022-10-05T07:52:11.403Z,10.25
2022-10-05T07:54:53.698Z,9.57
2022-10-05T07:57:26.153Z,8.23
2022-10-05T07:59:57.511Z,6.65
2022-10-05T08:02:32.548Z,8.00
2022-10-05T08:05:21.233Z,7.00
2022-10-05T08:07:52.187Z,8.10
2022-10-05T08:10:28.656Z,8.68
2022-10-05T08:13:11.960Z,7.97
2022-10-05T08:15:44.705Z,7.72
2022-10-05T08:18:14.594Z,10.05
2022-10-05T08:20:52.671Z,8.02
2022-10-05T08:23:35.967Z,9.90
2022-10-05T08:26:08.431Z,8.38
2022-10-05T08:29:10.296Z,9.68
2022-10-05T08:31:43.939Z,8.18
2022-10-05T08:34:40.795Z,7.97
2022-10-05T08:37:34.003Z,7.93
2022-10-05T08:40:15.851Z,7.85
2022-10-05T08:42:57.214Z,8.23
2022-10-05T08:45:44.946Z,8.32
2022-10-05T08:48:26.148Z,7.72
2022-10-05T08:51:28.160Z,8.77
2022-10-05T08:54:06.715Z,10.35
2022-10-05T08:57:00.622Z,8.82
2022-10-05T09:00:14.079Z,7.40
2022-10-05T09:03:09.088Z,6.80
2022-10-05T09:06:22.238Z,9.60
2022-10-05T09:08:54.412Z,8.35
2022-10-05T09:11:36.141Z,8.20
2022-10-05T09:14:23.538Z,7.95
2022-10-05T09:17:08.363Z,7.68
2022-10-05T09:19:49.256Z,8.55
2022-10-05T09:22:38.234Z,10.32
2022-10-05T09:25:25.134Z,7.15
2022-10-05T09:28:23.363Z,7.82
2022-10-05T09:31:21.499Z,6.53
2022-10-05T09:37:12.637Z,6.45
2022-10-05T09:39:42.968Z,4.70
2022-10-05T09:42:27.640Z,10.30
2022-10-05T09:45:35.791Z,9.75
2022-10-05T09:48:02.369Z,6.93
2022-10-05T09:50:38.189Z,7.30
2022-10-05T09:53:20.620Z,8.73
2022-10-05T09:59:18.786Z,7.85
2022-10-05T10:02:16.195Z,8.15
2022-10-05T10:05:05.519Z,7.00
2022-10-05T10:07:51.960Z,8.30
2022-10-05T10:10:36.128Z,5.32
2022-10-05T10:13:29.896Z,5.50
2022-10-05T10:16:17.219Z,5.38
2022-10-05T10:19:41.369Z,6.13
2022-10-05T10:22:43.193Z,7.18
2022-10-05T10:25:37.931Z,7.28
2022-10-05T10:28:46.624Z,7.05
2022-10-05T10:31:50.547Z,9.32
2022-10-05T10:34:48.497Z,8.07
2022-10-05T10:37:58.419Z,6.90
2022-10-05T10:40:43.782Z,6.65
2022-10-05T10:43:49.199Z,7.10
2022-10-05T10:46:15.799Z,7.10
2022-10-05T10:49:00.859Z,8.05
2022-10-05T10:51:54.604Z,10.90
2022-10-05T10:54:59.278Z,8.18
2022-10-05T10:57:44.173Z,7.13
2022-10-05T11:00:22.222Z,11.70
2022-10-05T11:03:33.070Z,7.97
2022-10-05T11:06:17.202Z,8.18
2022-10-05T11:09:11.831Z,12.55
2022-10-05T11:12:06.195Z,9.82
2022-10-05T11:15:33.998Z,8.23
2022-10-05T11:18:20.281Z,9.00
2022-10-05T11:21:13.927Z,6.93
2022-10-05T11:23:46.287Z,9.63
2022-10-05T11:26:33.032Z,9.93
2022-10-05T11:29:24.307Z,7.85
2022-10-05T11:32:17.940Z,8.85
2022-10-05T11:35:07.188Z,11.13
2022-10-05T11:37:54.643Z,10.05
2022-10-05T11:40:51.069Z,7.47
2022-10-05T11:43:45.288Z,6.53
2022-10-05T11:46:20.840Z,6.85
2022-10-05T11:49:02.615Z,7.40
2022-10-05T11:51:45.791Z,10.55
2022-10-05T11:54:38.319Z,6.05
2022-10-05T11:57:19.800Z,6.65
2022-10-05T12:00:12.777Z,7.97
2022-10-05T12:03:02.173Z,8.68
2022-10-05T12:05:44.194Z,6.88
2022-10-05T12:08:44.679Z,6.53
2022-10-05T12:11:31.243Z,6.68
2022-10-05T12:14:12.588Z,6.45
2022-10-05T12:16:50.876Z,6.13
2022-10-05T12:19:36.570Z,7.05
2022-10-05T12:22:19.890Z,7.40
2022-10-05T12:24:55.540Z,6.07
2022-10-05T12:27:27.581Z,7.07
2022-10-05T12:30:27.380Z,6.45
2022-10-05T12:33:25.394Z,7.22
2022-10-05T12:36:08.068Z,6.05
2022-10-05T12:38:52.801Z,5.55
2022-10-05T12:41:22.216Z,6.20
2022-10-05T12:44:44.481Z,6.05
2022-10-05T12:47:32.604Z,6.55
2022-10-05T12:50:21.101Z,6.88
2022-10-05T12:53:05.969Z,8.52
2022-10-05T12:56:07.441Z,6.68
2022-10-05T12:58:58.416Z,6.43
2022-10-05T13:01:52.902Z,9.82
2022-10-05T13:04:32.933Z,7.10
2022-10-05T13:07:02.708Z,7.78
2022-10-05T13:09:37.488Z,6.28
2022-10-05T13:12:19.004Z,6.55
2022-10-05T13:14:53.718Z,6.15
2022-10-05T13:17:57.797Z,8.45
2022-10-05T13:20:40.436Z,5.93
2022-10-05T13:23:34.773Z,6.88
2022-10-05T13:26:08.837Z,5.45
2022-10-05T13:29:07.357Z,7.57
2022-10-05T13:31:55.673Z,7.10
2022-10-05T13:34:45.357Z,6.45
2022-10-05T13:37:43.234Z,6.78
2022-10-05T13:41:08.035Z,5.15
2022-10-05T13:43:46.467Z,6.50
2022-10-05T13:46:28.385Z,6.65
2022-10-05T13:49:22.836Z,6.03
2022-10-05T13:51:59.299Z,7.35
2022-10-05T13:54:58.863Z,8.10
2022-10-05T13:57:51.454Z,5.10
2022-10-05T14:00:26.318Z,5.43
2022-10-05T14:02:56.562Z,6.03
2022-10-05T14:05:29.453Z,4.65
2022-10-05T14:08:16.795Z,5.70
2022-10-05T14:10:45.995Z,5.63
2022-10-05T14:13:13.308Z,6.97
2022-10-05T14:15:42.338Z,5.18
2022-10-05T14:18:27.177Z,5.35
2022-10-05T14:21:01.112Z,7.68
2022-10-05T14:23:28.755Z,5.18
2022-10-05T14:25:56.201Z,6.93
2022-10-05T14:28:33.749Z,6.43
2022-10-05T14:31:13.842Z,5.10
2022-10-05T14:33:41.611Z,5.65
2022-10-05T14:36:22.413Z,7.35
2022-10-05T14:38:56.133Z,7.75
2022-10-05T14:41:27.276Z,6.03
2022-10-05T14:44:05.809Z,9.00
2022-10-05T14:46:34.758Z,5.38
2022-10-05T14:49:26.022Z,5.57
2022-10-05T14:51:54.607Z,10.52
2022-10-05T14:54:41.165Z,5.20
2022-10-05T14:57:13.907Z,6.70
2022-10-05T15:02:54.341Z,5.38
2022-10-05T15:05:42.163Z,4.93
2022-10-05T15:08:20.203Z,7.20
2022-10-05T15:10:54.852Z,7.32
2022-10-05T15:13:25.533Z,4.68
2022-10-05T15:15:56.761Z,5.90
2022-10-05T15:18:43.030Z,5.03
2022-10-05T15:21:23.768Z,6.15
2022-10-05T15:24:06.099Z,5.82
2022-10-05T15:26:54.430Z,9.18
2022-10-05T15:29:27.514Z,6.53
2022-10-05T15:32:06.391Z,7.35
2022-10-05T15:34:42.982Z,4.35
2022-10-05T15:37:58.043Z,5.30
2022-10-05T15:40:43.190Z,7.80
2022-10-05T15:43:19.647Z,8.05
2022-10-05T15:46:01.457Z,9.85
2022-10-05T15:48:57.936Z,5.18
2022-10-05T15:51:50.078Z,5.82
2022-10-05T15:55:01.174Z,6.38
2022-10-05T15:58:14.853Z,5.60
2022-10-05T16:00:51.814Z,7.30
2022-10-05T16:03:23.305Z,7.25
2022-10-05T16:06:23.704Z,6.75
2022-10-05T16:09:10.115Z,4.93
2022-10-05T16:11:45.575Z,5.28
2022-10-05T16:14:31.528Z,7.53
2022-10-05T16:17:20.720Z,5.25
2022-10-05T16:20:05.851Z,6.60
2022-10-05T16:23:02.570Z,6.72
2022-10-05T16:25:59.120Z,6.22
2022-10-05T16:28:38.272Z,6.97
2022-10-05T16:31:06.589Z,7.13
2022-10-05T16:33:55.079Z,5.25
2022-10-05T16:36:35.606Z,5.47
2022-10-05T16:39:09.736Z,6.35
2022-10-05T16:41:42.843Z,5.72
2022-10-05T16:44:39.403Z,6.28
2022-10-05T16:47:28.880Z,8.40
2022-10-05T16:50:15.806Z,8.68
2022-10-05T16:52:45.781Z,4.82
2022-10-05T16:55:26.849Z,6.50
2022-10-05T16:57:56.764Z,7.50
2022-10-05T17:00:30.652Z,7.75
2022-10-05T17:03:25.394Z,4.88
2022-10-05T17:06:08.706Z,6.65
2022-10-05T17:08:38.849Z,7.40
2022-10-05T17:11:34.515Z,4.95
2022-10-05T17:14:33.370Z,6.72
2022-10-05T17:17:30.854Z,6.82
2022-10-05T17:20:06.932Z,8.10
2022-10-05T17:22:39.714Z,5.00
2022-10-05T17:28:32.467Z,7.18
2022-10-05T17:31:18.538Z,5.80
2022-10-05T17:34:10.393Z,7.07
2022-10-05T17:39:17.869Z,6.85
2022-10-05T17:41:44.842Z,5.95
2022-10-05T17:44:19.130Z,8.00
2022-10-05T17:46:57.659Z,6.25
2022-10-05T17:50:12.112Z,7.45
2022-10-05T17:53:01.904Z,5.65
2022-10-05T17:55:31.688Z,5.25
2022-10-05T17:58:18.265Z,8.73
2022-10-05T18:00:57.045Z,6.05
2022-10-05T18:03:34.492Z,6.90
2022-10-05T18:06:25.864Z,8.00
2022-10-05T18:09:16.844Z,6.13
2022-10-05T18:11:45.731Z,5.05
2022-10-05T18:14:19.914Z,8.75
2022-10-05T18:17:09.855Z,7.63
2022-10-05T18:19:37.590Z,6.70
2022-10-05T18:22:16.139Z,6.00
2022-10-05T18:24:52.888Z,7.97
2022-10-05T18:27:47.806Z,5.75
2022-10-05T18:30:25.861Z,7.13
2022-10-05T18:33:10.876Z,6.47
2022-10-05T18:35:57.671Z,9.18
2022-10-05T18:38:52.886Z,6.22
2022-10-05T18:41:46.784Z,6.03
2022-10-05T18:44:36.062Z,5.72
2022-10-05T18:47:14.695Z,5.38
2022-10-05T18:49:53.163Z,6.68
2022-10-05T18:52:38.537Z,7.28
2022-10-05T18:55:32.591Z,5.40
2022-10-05T18:58:14.701Z,8.40
2022-10-05T19:00:55.569Z,5.70
2022-10-05T19:03:38.383Z,7.25
2022-10-05T19:06:12.974Z,6.70
2022-10-05T19:09:10.238Z,10.00
2022-10-05T19:11:51.814Z,7.53
2022-10-05T19:14:44.032Z,7.93
2022-10-05T19:17:22.296Z,7.90
2022-10-05T19:20:13.554Z,7.78
2022-10-05T19:23:21.093Z,8.07
2022-10-05T19:25:48.173Z,8.43
2022-10-05T19:28:28.168Z,8.88
2022-10-05T19:31:32.033Z,7.03
2022-10-05T19:34:07.718Z,7.70
2022-10-05T19:36:45.959Z,7.45
2022-10-05T19:39:27.007Z,7.95
2022-10-05T19:42:24.854Z,7.95
2022-10-05T19:45:02.666Z,5.72
2022-10-05T19:47:45.217Z,4.80
2022-10-05T19:50:23.907Z,3.50
2022-10-05T19:53:02.375Z,4.82
2022-10-05T19:55:39.510Z,2.50
2022-10-05T19:58:18.357Z,2.97
2022-10-05T20:00:52.803Z,3.13
2022-10-05T20:03:23.482Z,2.33
2022-10-05T20:05:50.427Z,2.55
2022-10-05T20:08:18.976Z,2.13
2022-10-05T20:11:03.421Z,3.10
2022-10-05T20:13:33.328Z,3.58
2022-10-05T20:16:33.464Z,1.88
2022-10-05T20:19:19.183Z,3.00
2022-10-05T20:24:25.685Z,7.45
2022-10-05T20:27:02.723Z,5.90
2022-10-05T20:29:35.819Z,2.67
2022-10-05T20:32:14.111Z,3.97
2022-10-05T20:34:47.683Z,5.43
2022-10-05T20:37:16.568Z,3.45
2022-10-05T20:39:43.961Z,3.67
2022-10-05T20:42:11.345Z,5.03
2022-10-05T20:44:38.297Z,3.90
2022-10-05T20:47:08.295Z,4.10
2022-10-05T20:49:36.490Z,5.03
2022-10-05T20:52:09.545Z,6.85
2022-10-05T20:54:37.876Z,5.47
2022-10-05T20:57:06.127Z,9.00
2022-10-05T20:59:34.296Z,4.10
2022-10-05T21:02:01.524Z,3.85
2022-10-05T21:04:41.002Z,7.28
2022-10-05T21:07:08.184Z,1.98
2022-10-05T21:09:37.852Z,3.55
2022-10-05T21:12:04.694Z,2.90
2022-10-05T21:14:34.092Z,5.38
2022-10-05T21:17:01.803Z,3.10
2022-10-05T21:19:29.336Z,4.60
2022-10-05T21:21:59.219Z,6.30
2022-10-05T21:24:26.181Z,6.07
2022-10-05T21:26:55.163Z,7.88
2022-10-05T21:29:22.068Z,7.55
2022-10-05T21:31:48.705Z,6.88
2022-10-05T21:34:15.718Z,8.20
2022-10-05T21:36:42.331Z,6.00
2022-10-05T21:41:35.504Z,7.78
2022-10-05T21:44:02.148Z,4.32
2022-10-05T21:46:29.501Z,4.65
2022-10-05T21:48:56.177Z,2.95
2022-10-05T21:51:25.737Z,3.88
2022-10-05T21:53:56.968Z,1.98
2022-10-05T21:56:27.837Z,3.45
2022-10-05T21:58:54.639Z,2.28
2022-10-05T22:01:22.886Z,3.55
2022-10-05T22:03:50.111Z,4.13
2022-10-05T22:06:16.735Z,2.70
2022-10-05T22:11:19.325Z,5.13
2022-10-05T22:13:51.498Z,2.53
2022-10-05T22:16:21.174Z,3.85
2022-10-05T22:18:48.939Z,3.15
2022-10-05T22:21:16.732Z,2.72
2022-10-05T22:23:45.515Z,2.53
2022-10-05T22:26:15.859Z,3.50
2022-10-05T22:28:43.544Z,2.45
2022-10-05T22:31:12.393Z,6.65
2022-10-05T22:33:39.736Z,5.03
2022-10-05T22:36:07.911Z,2.40
2022-10-05T22:38:34.660Z,4.38
2022-10-05T22:41:01.432Z,5.35
2022-10-05T22:43:28.175Z,5.57
2022-10-05T22:45:55.928Z,5.88
2022-10-05T22:48:22.781Z,5.20
2022-10-05T22:50:49.543Z,3.80
2022-10-05T22:53:16.293Z,7.88
2022-10-05T22:55:42.928Z,5.57
2022-10-05T23:00:57.145Z,7.38
2022-10-05T23:03:22.920Z,6.00
2022-10-05T23:08:22.375Z,4.47
2022-10-05T23:13:15.651Z,5.18
2022-10-05T23:15:42.398Z,5.43
2022-10-05T23:18:09.006Z,10.43
2022-10-05T23:23:02.195Z,7.57
2022-10-05T23:27:55.413Z,5.68
2022-10-05T23:30:22.094Z,7.90
2022-10-05T23:32:48.727Z,8.65
2022-10-05T23:37:44.263Z,9.60
2022-10-05T23:40:13.778Z,10.52
2022-10-05T23:42:41.380Z,8.40
2022-10-05T23:45:09.975Z,11.27
2022-10-05T23:47:36.876Z,8.02
2022-10-05T23:50:06.794Z,12.20
2022-10-05T23:52:34.838Z,17.00
2022-10-05T23:55:03.169Z,9.73
2022-10-05T23:57:29.804Z,9.07
